Calvin, Oklahoma
Current Conditions -  °F | °C
As of 6:55 AM on Saturday 25 Oct 2014 (Local Time) from KADH Reporting Station
Clear Clear  
Wind Chill: 59°   Ceiling: Unl
Heat Index: 59°   Visibility: 10mi
Dew Point: 59°   Wind: 5mph
Humidity: 100%   Direction: 170°S
Pressure: 30.08"   Gusts: NA
Location:  34.97°N, 96.25°W
Report Text: KADH 251155Z AUTO 17004KT 10SM CLR 15/15 A3008 RMK AO2
Loading
Personal Weather Stations






























Interactive Weather Map
Tropical Storm Tracking
New forecast layout! Learn more

10-Day Weather Forecast

Advertisements
Track Severe Weather on mobile